sensor_id;sensor_type;location;lat;lon;timestamp;P1;durP1;ratioP1;P2;durP2;ratioP2
42714;SDS011;28351;51.480;5.706;2022-08-19T00:01:41;21.25;;;16.77;;
42714;SDS011;28351;51.480;5.706;2022-08-19T00:04:09;20.83;;;16.15;;
42714;SDS011;28351;51.480;5.706;2022-08-19T00:06:38;23.98;;;17.38;;
42714;SDS011;28351;51.480;5.706;2022-08-19T00:09:05;21.80;;;16.85;;
42714;SDS011;28351;51.480;5.706;2022-08-19T00:11:33;21.83;;;16.97;;
42714;SDS011;28351;51.480;5.706;2022-08-19T00:14:00;23.05;;;17.25;;
42714;SDS011;28351;51.480;5.706;2022-08-19T00:16:26;22.27;;;15.52;;
42714;SDS011;28351;51.480;5.706;2022-08-19T00:18:53;20.92;;;15.90;;
42714;SDS011;28351;51.480;5.706;2022-08-19T00:21:20;21.90;;;15.83;;
42714;SDS011;28351;51.480;5.706;2022-08-19T00:23:45;20.05;;;14.70;;
42714;SDS011;28351;51.480;5.706;2022-08-19T00:26:11;21.92;;;16.67;;
42714;SDS011;28351;51.480;5.706;2022-08-19T00:28:37;20.48;;;16.63;;
42714;SDS011;28351;51.480;5.706;2022-08-19T00:31:04;22.75;;;16.63;;
42714;SDS011;28351;51.480;5.706;2022-08-19T00:33:30;22.73;;;17.02;;
42714;SDS011;28351;51.480;5.706;2022-08-19T00:35:57;23.55;;;17.83;;
42714;SDS011;28351;51.480;5.706;2022-08-19T00:38:29;22.67;;;17.13;;
42714;SDS011;28351;51.480;5.706;2022-08-19T00:40:54;23.20;;;16.90;;
42714;SDS011;28351;51.480;5.706;2022-08-19T00:43:21;22.83;;;17.55;;
42714;SDS011;28351;51.480;5.706;2022-08-19T00:45:50;22.05;;;16.73;;
42714;SDS011;28351;51.480;5.706;2022-08-19T00:48:16;24.85;;;18.02;;
42714;SDS011;28351;51.480;5.706;2022-08-19T00:50:43;22.33;;;16.48;;
42714;SDS011;28351;51.480;5.706;2022-08-19T00:53:10;22.95;;;18.02;;
42714;SDS011;28351;51.480;5.706;2022-08-19T00:55:42;22.77;;;16.65;;
42714;SDS011;28351;51.480;5.706;2022-08-19T00:58:12;25.02;;;17.67;;
42714;SDS011;28351;51.480;5.706;2022-08-19T01:00:40;22.70;;;16.85;;
42714;SDS011;28351;51.480;5.706;2022-08-19T01:03:07;23.85;;;17.33;;
42714;SDS011;28351;51.480;5.706;2022-08-19T01:05:34;23.77;;;18.50;;
42714;SDS011;28351;51.480;5.706;2022-08-19T01:08:01;26.02;;;18.52;;
42714;SDS011;28351;51.480;5.706;2022-08-19T01:12:57;22.63;;;16.67;;
42714;SDS011;28351;51.480;5.706;2022-08-19T01:15:26;22.40;;;16.80;;
42714;SDS011;28351;51.480;5.706;2022-08-19T01:17:54;23.58;;;16.98;;
42714;SDS011;28351;51.480;5.706;2022-08-19T01:20:22;26.63;;;18.23;;
42714;SDS011;28351;51.480;5.706;2022-08-19T01:22:50;23.67;;;17.42;;
42714;SDS011;28351;51.480;5.706;2022-08-19T01:25:21;24.00;;;17.88;;
42714;SDS011;28351;51.480;5.706;2022-08-19T01:27:51;24.55;;;17.08;;
42714;SDS011;28351;51.480;5.706;2022-08-19T01:30:19;24.05;;;18.05;;
42714;SDS011;28351;51.480;5.706;2022-08-19T01:32:47;26.67;;;19.35;;
42714;SDS011;28351;51.480;5.706;2022-08-19T01:35:13;26.42;;;18.98;;
42714;SDS011;28351;51.480;5.706;2022-08-19T01:37:51;29.27;;;20.23;;
42714;SDS011;28351;51.480;5.706;2022-08-19T01:40:20;27.38;;;19.15;;
42714;SDS011;28351;51.480;5.706;2022-08-19T01:42:48;30.00;;;20.23;;
42714;SDS011;28351;51.480;5.706;2022-08-19T01:45:14;29.15;;;20.15;;
42714;SDS011;28351;51.480;5.706;2022-08-19T01:47:41;34.03;;;20.20;;
42714;SDS011;28351;51.480;5.706;2022-08-19T01:50:08;27.73;;;19.85;;
42714;SDS011;28351;51.480;5.706;2022-08-19T01:52:36;26.30;;;17.98;;
42714;SDS011;28351;51.480;5.706;2022-08-19T01:55:07;26.85;;;18.88;;
42714;SDS011;28351;51.480;5.706;2022-08-19T01:57:34;27.88;;;18.95;;
42714;SDS011;28351;51.480;5.706;2022-08-19T02:00:01;27.20;;;18.48;;
42714;SDS011;28351;51.480;5.706;2022-08-19T02:02:30;28.85;;;18.58;;
42714;SDS011;28351;51.480;5.706;2022-08-19T02:04:56;28.92;;;18.15;;
42714;SDS011;28351;51.480;5.706;2022-08-19T02:07:22;29.02;;;18.50;;
42714;SDS011;28351;51.480;5.706;2022-08-19T02:09:47;27.73;;;19.30;;
42714;SDS011;28351;51.480;5.706;2022-08-19T02:12:13;28.25;;;18.92;;
42714;SDS011;28351;51.480;5.706;2022-08-19T02:14:41;27.37;;;19.30;;
42714;SDS011;28351;51.480;5.706;2022-08-19T02:17:07;24.70;;;18.13;;
42714;SDS011;28351;51.480;5.706;2022-08-19T02:19:33;24.23;;;17.42;;
42714;SDS011;28351;51.480;5.706;2022-08-19T02:21:59;29.58;;;19.30;;
42714;SDS011;28351;51.480;5.706;2022-08-19T02:24:25;28.00;;;18.33;;
42714;SDS011;28351;51.480;5.706;2022-08-19T02:26:52;25.83;;;18.10;;
42714;SDS011;28351;51.480;5.706;2022-08-19T02:29:17;27.58;;;19.10;;
42714;SDS011;28351;51.480;5.706;2022-08-19T02:31:43;27.02;;;18.50;;
42714;SDS011;28351;51.480;5.706;2022-08-19T02:34:09;29.65;;;19.27;;
42714;SDS011;28351;51.480;5.706;2022-08-19T02:36:35;25.65;;;17.92;;
42714;SDS011;28351;51.480;5.706;2022-08-19T02:39:00;31.63;;;19.90;;
42714;SDS011;28351;51.480;5.706;2022-08-19T02:41:28;27.70;;;19.77;;
42714;SDS011;28351;51.480;5.706;2022-08-19T02:43:56;35.42;;;21.77;;
42714;SDS011;28351;51.480;5.706;2022-08-19T02:46:28;30.67;;;20.77;;
42714;SDS011;28351;51.480;5.706;2022-08-19T02:48:56;34.25;;;21.70;;
42714;SDS011;28351;51.480;5.706;2022-08-19T02:51:25;34.90;;;21.65;;
42714;SDS011;28351;51.480;5.706;2022-08-19T02:53:52;32.33;;;21.05;;
42714;SDS011;28351;51.480;5.706;2022-08-19T02:56:18;32.97;;;20.80;;
42714;SDS011;28351;51.480;5.706;2022-08-19T02:58:45;34.75;;;21.65;;
42714;SDS011;28351;51.480;5.706;2022-08-19T03:01:18;34.72;;;21.42;;
42714;SDS011;28351;51.480;5.706;2022-08-19T03:03:50;32.88;;;20.75;;
42714;SDS011;28351;51.480;5.706;2022-08-19T03:06:16;33.28;;;20.45;;
42714;SDS011;28351;51.480;5.706;2022-08-19T03:08:43;33.92;;;21.33;;
42714;SDS011;28351;51.480;5.706;2022-08-19T03:11:17;29.45;;;19.88;;
42714;SDS011;28351;51.480;5.706;2022-08-19T03:13:45;29.77;;;19.38;;
42714;SDS011;28351;51.480;5.706;2022-08-19T03:16:14;30.33;;;19.75;;
42714;SDS011;28351;51.480;5.706;2022-08-19T03:18:40;30.65;;;19.10;;
42714;SDS011;28351;51.480;5.706;2022-08-19T03:21:06;28.50;;;20.10;;
42714;SDS011;28351;51.480;5.706;2022-08-19T03:23:33;32.92;;;20.27;;
42714;SDS011;28351;51.480;5.706;2022-08-19T03:26:02;32.78;;;19.45;;
42714;SDS011;28351;51.480;5.706;2022-08-19T03:28:29;29.50;;;19.35;;
42714;SDS011;28351;51.480;5.706;2022-08-19T03:30:56;33.20;;;20.13;;
42714;SDS011;28351;51.480;5.706;2022-08-19T03:33:27;34.13;;;20.55;;
42714;SDS011;28351;51.480;5.706;2022-08-19T03:36:03;32.50;;;19.58;;
42714;SDS011;28351;51.480;5.706;2022-08-19T03:38:43;32.22;;;20.15;;
42714;SDS011;28351;51.480;5.706;2022-08-19T03:43:38;30.90;;;19.17;;
42714;SDS011;28351;51.480;5.706;2022-08-19T03:46:06;32.67;;;20.38;;
42714;SDS011;28351;51.480;5.706;2022-08-19T03:48:35;35.85;;;21.27;;
42714;SDS011;28351;51.480;5.706;2022-08-19T03:51:02;33.65;;;21.58;;
42714;SDS011;28351;51.480;5.706;2022-08-19T03:53:28;33.42;;;20.98;;
42714;SDS011;28351;51.480;5.706;2022-08-19T03:55:55;37.10;;;22.38;;
42714;SDS011;28351;51.480;5.706;2022-08-19T03:58:21;34.25;;;21.15;;
42714;SDS011;28351;51.480;5.706;2022-08-19T04:00:47;36.97;;;22.15;;
42714;SDS011;28351;51.480;5.706;2022-08-19T04:03:13;33.97;;;21.27;;
42714;SDS011;28351;51.480;5.706;2022-08-19T04:05:39;36.47;;;22.17;;
42714;SDS011;28351;51.480;5.706;2022-08-19T04:08:05;38.80;;;22.52;;
42714;SDS011;28351;51.480;5.706;2022-08-19T04:10:39;37.35;;;21.95;;
42714;SDS011;28351;51.480;5.706;2022-08-19T04:13:06;34.65;;;20.88;;
42714;SDS011;28351;51.480;5.706;2022-08-19T04:15:33;37.10;;;21.10;;
42714;SDS011;28351;51.480;5.706;2022-08-19T04:18:06;32.22;;;20.30;;
42714;SDS011;28351;51.480;5.706;2022-08-19T04:20:37;36.35;;;21.65;;
42714;SDS011;28351;51.480;5.706;2022-08-19T04:23:04;36.72;;;22.25;;
42714;SDS011;28351;51.480;5.706;2022-08-19T04:25:34;35.35;;;21.25;;
42714;SDS011;28351;51.480;5.706;2022-08-19T04:28:01;34.03;;;22.38;;
42714;SDS011;28351;51.480;5.706;2022-08-19T04:30:27;35.58;;;21.80;;
42714;SDS011;28351;51.480;5.706;2022-08-19T04:32:52;37.38;;;22.98;;
42714;SDS011;28351;51.480;5.706;2022-08-19T04:35:18;35.03;;;21.80;;
42714;SDS011;28351;51.480;5.706;2022-08-19T04:37:43;35.97;;;22.75;;
42714;SDS011;28351;51.480;5.706;2022-08-19T04:40:09;35.25;;;21.73;;
42714;SDS011;28351;51.480;5.706;2022-08-19T04:42:53;33.70;;;20.52;;
42714;SDS011;28351;51.480;5.706;2022-08-19T04:45:19;30.23;;;19.30;;
42714;SDS011;28351;51.480;5.706;2022-08-19T04:47:47;32.92;;;21.17;;
42714;SDS011;28351;51.480;5.706;2022-08-19T04:50:13;31.98;;;20.77;;
42714;SDS011;28351;51.480;5.706;2022-08-19T04:52:39;31.05;;;20.80;;
42714;SDS011;28351;51.480;5.706;2022-08-19T04:55:09;32.92;;;21.08;;
42714;SDS011;28351;51.480;5.706;2022-08-19T04:57:36;33.08;;;21.52;;
42714;SDS011;28351;51.480;5.706;2022-08-19T05:00:05;32.92;;;19.73;;
42714;SDS011;28351;51.480;5.706;2022-08-19T05:02:33;34.47;;;20.92;;
42714;SDS011;28351;51.480;5.706;2022-08-19T05:04:59;31.73;;;20.70;;
42714;SDS011;28351;51.480;5.706;2022-08-19T05:07:25;32.40;;;21.70;;
42714;SDS011;28351;51.480;5.706;2022-08-19T05:09:51;32.45;;;20.92;;
42714;SDS011;28351;51.480;5.706;2022-08-19T05:12:17;36.08;;;20.80;;
42714;SDS011;28351;51.480;5.706;2022-08-19T05:14:43;35.22;;;21.45;;
42714;SDS011;28351;51.480;5.706;2022-08-19T05:17:10;34.00;;;21.60;;
42714;SDS011;28351;51.480;5.706;2022-08-19T05:19:36;42.63;;;23.88;;
42714;SDS011;28351;51.480;5.706;2022-08-19T05:22:20;38.38;;;24.25;;
42714;SDS011;28351;51.480;5.706;2022-08-19T05:25:00;40.25;;;25.50;;
42714;SDS011;28351;51.480;5.706;2022-08-19T05:27:35;44.38;;;24.67;;
42714;SDS011;28351;51.480;5.706;2022-08-19T05:30:01;39.05;;;24.98;;
42714;SDS011;28351;51.480;5.706;2022-08-19T05:32:27;41.33;;;25.85;;
42714;SDS011;28351;51.480;5.706;2022-08-19T05:34:53;50.45;;;30.52;;
42714;SDS011;28351;51.480;5.706;2022-08-19T05:37:18;45.75;;;28.95;;
42714;SDS011;28351;51.480;5.706;2022-08-19T05:39:44;55.17;;;33.97;;
42714;SDS011;28351;51.480;5.706;2022-08-19T05:42:10;55.55;;;33.03;;
42714;SDS011;28351;51.480;5.706;2022-08-19T05:44:37;55.22;;;33.47;;
42714;SDS011;28351;51.480;5.706;2022-08-19T05:47:05;60.15;;;34.55;;
42714;SDS011;28351;51.480;5.706;2022-08-19T05:49:33;58.72;;;35.20;;
42714;SDS011;28351;51.480;5.706;2022-08-19T05:52:01;64.18;;;35.72;;
42714;SDS011;28351;51.480;5.706;2022-08-19T05:54:32;72.45;;;37.90;;
42714;SDS011;28351;51.480;5.706;2022-08-19T05:57:00;66.10;;;37.97;;
42714;SDS011;28351;51.480;5.706;2022-08-19T05:59:26;68.40;;;37.90;;
42714;SDS011;28351;51.480;5.706;2022-08-19T06:01:52;66.25;;;37.28;;
42714;SDS011;28351;51.480;5.706;2022-08-19T06:04:22;63.45;;;36.10;;
42714;SDS011;28351;51.480;5.706;2022-08-19T06:06:48;67.78;;;37.25;;
42714;SDS011;28351;51.480;5.706;2022-08-19T06:09:17;69.93;;;37.70;;
42714;SDS011;28351;51.480;5.706;2022-08-19T06:11:45;67.10;;;36.25;;
42714;SDS011;28351;51.480;5.706;2022-08-19T06:14:17;65.90;;;36.00;;
42714;SDS011;28351;51.480;5.706;2022-08-19T06:16:45;63.42;;;35.25;;
42714;SDS011;28351;51.480;5.706;2022-08-19T06:19:12;57.95;;;33.83;;
42714;SDS011;28351;51.480;5.706;2022-08-19T06:21:41;66.93;;;37.40;;
42714;SDS011;28351;51.480;5.706;2022-08-19T06:24:09;68.23;;;36.77;;
42714;SDS011;28351;51.480;5.706;2022-08-19T06:26:37;67.77;;;37.67;;
42714;SDS011;28351;51.480;5.706;2022-08-19T06:29:04;68.38;;;37.95;;
42714;SDS011;28351;51.480;5.706;2022-08-19T06:31:31;63.83;;;36.28;;
42714;SDS011;28351;51.480;5.706;2022-08-19T06:33:59;69.40;;;35.83;;
42714;SDS011;28351;51.480;5.706;2022-08-19T06:38:58;68.63;;;35.78;;
42714;SDS011;28351;51.480;5.706;2022-08-19T06:41:26;66.15;;;36.50;;
42714;SDS011;28351;51.480;5.706;2022-08-19T06:43:52;70.70;;;36.55;;
42714;SDS011;28351;51.480;5.706;2022-08-19T06:46:19;67.80;;;35.72;;
42714;SDS011;28351;51.480;5.706;2022-08-19T06:48:51;69.88;;;36.80;;
42714;SDS011;28351;51.480;5.706;2022-08-19T06:51:21;64.07;;;35.35;;
42714;SDS011;28351;51.480;5.706;2022-08-19T06:53:47;63.95;;;35.15;;
42714;SDS011;28351;51.480;5.706;2022-08-19T06:56:14;65.78;;;34.22;;
42714;SDS011;28351;51.480;5.706;2022-08-19T06:58:46;61.45;;;33.05;;
42714;SDS011;28351;51.480;5.706;2022-08-19T07:01:13;64.85;;;33.92;;
42714;SDS011;28351;51.480;5.706;2022-08-19T07:03:38;61.20;;;34.08;;
42714;SDS011;28351;51.480;5.706;2022-08-19T07:06:05;60.60;;;31.10;;
42714;SDS011;28351;51.480;5.706;2022-08-19T07:08:33;55.15;;;30.70;;
42714;SDS011;28351;51.480;5.706;2022-08-19T07:11:00;59.50;;;32.75;;
42714;SDS011;28351;51.480;5.706;2022-08-19T07:13:25;62.40;;;32.30;;
42714;SDS011;28351;51.480;5.706;2022-08-19T07:15:54;56.28;;;31.67;;
42714;SDS011;28351;51.480;5.706;2022-08-19T07:18:20;56.78;;;30.75;;
42714;SDS011;28351;51.480;5.706;2022-08-19T07:20:46;55.28;;;29.90;;
42714;SDS011;28351;51.480;5.706;2022-08-19T07:23:12;59.45;;;30.33;;
42714;SDS011;28351;51.480;5.706;2022-08-19T07:25:39;51.45;;;28.83;;
42714;SDS011;28351;51.480;5.706;2022-08-19T07:28:05;53.05;;;29.83;;
42714;SDS011;28351;51.480;5.706;2022-08-19T07:30:36;50.08;;;28.30;;
42714;SDS011;28351;51.480;5.706;2022-08-19T07:33:02;55.83;;;28.92;;
42714;SDS011;28351;51.480;5.706;2022-08-19T07:35:28;49.53;;;26.90;;
42714;SDS011;28351;51.480;5.706;2022-08-19T07:37:53;49.00;;;27.73;;
42714;SDS011;28351;51.480;5.706;2022-08-19T07:40:19;49.22;;;28.25;;
42714;SDS011;28351;51.480;5.706;2022-08-19T07:42:45;48.60;;;26.60;;
42714;SDS011;28351;51.480;5.706;2022-08-19T07:45:10;47.67;;;27.52;;
42714;SDS011;28351;51.480;5.706;2022-08-19T07:47:36;44.67;;;26.00;;
42714;SDS011;28351;51.480;5.706;2022-08-19T07:50:03;43.38;;;24.08;;
42714;SDS011;28351;51.480;5.706;2022-08-19T07:52:32;48.33;;;27.27;;
42714;SDS011;28351;51.480;5.706;2022-08-19T07:54:57;47.95;;;28.15;;
42714;SDS011;28351;51.480;5.706;2022-08-19T07:57:24;43.22;;;24.30;;
42714;SDS011;28351;51.480;5.706;2022-08-19T07:59:50;44.92;;;25.02;;
42714;SDS011;28351;51.480;5.706;2022-08-19T08:02:15;44.03;;;24.23;;
42714;SDS011;28351;51.480;5.706;2022-08-19T08:04:41;40.97;;;23.95;;
42714;SDS011;28351;51.480;5.706;2022-08-19T08:07:25;39.45;;;23.27;;
42714;SDS011;28351;51.480;5.706;2022-08-19T08:10:09;42.83;;;24.02;;
42714;SDS011;28351;51.480;5.706;2022-08-19T08:12:37;35.05;;;21.75;;
42714;SDS011;28351;51.480;5.706;2022-08-19T08:15:07;37.67;;;22.27;;
42714;SDS011;28351;51.480;5.706;2022-08-19T08:17:36;32.90;;;20.30;;
42714;SDS011;28351;51.480;5.706;2022-08-19T08:20:06;36.40;;;19.88;;
42714;SDS011;28351;51.480;5.706;2022-08-19T08:22:32;39.55;;;21.80;;
42714;SDS011;28351;51.480;5.706;2022-08-19T08:25:18;31.40;;;19.77;;
42714;SDS011;28351;51.480;5.706;2022-08-19T08:27:46;37.00;;;21.13;;
42714;SDS011;28351;51.480;5.706;2022-08-19T08:30:16;34.33;;;19.38;;
42714;SDS011;28351;51.480;5.706;2022-08-19T08:32:44;30.67;;;16.90;;
42714;SDS011;28351;51.480;5.706;2022-08-19T08:35:11;29.63;;;17.67;;
42714;SDS011;28351;51.480;5.706;2022-08-19T08:37:39;27.20;;;18.13;;
42714;SDS011;28351;51.480;5.706;2022-08-19T08:40:06;28.67;;;18.98;;
42714;SDS011;28351;51.480;5.706;2022-08-19T08:42:36;31.80;;;18.08;;
42714;SDS011;28351;51.480;5.706;2022-08-19T08:45:11;30.27;;;20.25;;
42714;SDS011;28351;51.480;5.706;2022-08-19T08:47:41;26.33;;;17.58;;
42714;SDS011;28351;51.480;5.706;2022-08-19T08:50:13;24.17;;;16.35;;
42714;SDS011;28351;51.480;5.706;2022-08-19T08:52:45;30.17;;;19.13;;
42714;SDS011;28351;51.480;5.706;2022-08-19T08:55:15;28.67;;;20.35;;
42714;SDS011;28351;51.480;5.706;2022-08-19T08:57:55;26.98;;;18.73;;
42714;SDS011;28351;51.480;5.706;2022-08-19T09:00:27;27.42;;;17.67;;
42714;SDS011;28351;51.480;5.706;2022-08-19T09:02:57;20.10;;;15.63;;
42714;SDS011;28351;51.480;5.706;2022-08-19T09:05:24;24.40;;;15.88;;
42714;SDS011;28351;51.480;5.706;2022-08-19T09:08:00;20.02;;;15.57;;
42714;SDS011;28351;51.480;5.706;2022-08-19T09:15:38;24.45;;;19.02;;
42714;SDS011;28351;51.480;5.706;2022-08-19T09:18:10;23.70;;;17.98;;
42714;SDS011;28351;51.480;5.706;2022-08-19T09:20:38;20.60;;;17.40;;
42714;SDS011;28351;51.480;5.706;2022-08-19T09:23:04;24.02;;;16.80;;
42714;SDS011;28351;51.480;5.706;2022-08-19T09:25:30;22.83;;;16.75;;
42714;SDS011;28351;51.480;5.706;2022-08-19T09:27:57;18.70;;;14.48;;
42714;SDS011;28351;51.480;5.706;2022-08-19T09:30:28;19.48;;;14.82;;
42714;SDS011;28351;51.480;5.706;2022-08-19T09:32:56;18.42;;;15.07;;
42714;SDS011;28351;51.480;5.706;2022-08-19T09:35:22;22.77;;;15.88;;
42714;SDS011;28351;51.480;5.706;2022-08-19T09:37:53;25.00;;;15.48;;
42714;SDS011;28351;51.480;5.706;2022-08-19T09:40:20;21.60;;;14.68;;
42714;SDS011;28351;51.480;5.706;2022-08-19T09:42:46;18.55;;;15.75;;
42714;SDS011;28351;51.480;5.706;2022-08-19T09:45:13;19.63;;;16.10;;
42714;SDS011;28351;51.480;5.706;2022-08-19T09:47:40;21.90;;;17.23;;
42714;SDS011;28351;51.480;5.706;2022-08-19T09:50:07;22.27;;;17.65;;
42714;SDS011;28351;51.480;5.706;2022-08-19T09:52:34;23.33;;;17.02;;
42714;SDS011;28351;51.480;5.706;2022-08-19T09:55:02;23.35;;;18.48;;
42714;SDS011;28351;51.480;5.706;2022-08-19T09:57:29;24.27;;;19.85;;
42714;SDS011;28351;51.480;5.706;2022-08-19T09:59:55;21.75;;;17.27;;
42714;SDS011;28351;51.480;5.706;2022-08-19T10:04:49;19.83;;;15.65;;
42714;SDS011;28351;51.480;5.706;2022-08-19T10:07:34;25.55;;;17.92;;
42714;SDS011;28351;51.480;5.706;2022-08-19T10:10:00;20.83;;;15.35;;
42714;SDS011;28351;51.480;5.706;2022-08-19T10:12:26;19.92;;;16.63;;
42714;SDS011;28351;51.480;5.706;2022-08-19T10:14:51;21.70;;;16.52;;
42714;SDS011;28351;51.480;5.706;2022-08-19T10:17:19;24.58;;;17.05;;
42714;SDS011;28351;51.480;5.706;2022-08-19T10:19:45;17.52;;;15.63;;
42714;SDS011;28351;51.480;5.706;2022-08-19T10:22:12;23.02;;;16.98;;
42714;SDS011;28351;51.480;5.706;2022-08-19T10:24:38;25.42;;;18.83;;
42714;SDS011;28351;51.480;5.706;2022-08-19T10:27:04;24.80;;;17.77;;
42714;SDS011;28351;51.480;5.706;2022-08-19T10:29:31;21.17;;;15.55;;
42714;SDS011;28351;51.480;5.706;2022-08-19T10:34:27;19.85;;;14.77;;
42714;SDS011;28351;51.480;5.706;2022-08-19T10:36:54;23.25;;;16.02;;
42714;SDS011;28351;51.480;5.706;2022-08-19T10:39:21;21.70;;;15.68;;
42714;SDS011;28351;51.480;5.706;2022-08-19T10:41:47;21.98;;;15.93;;
42714;SDS011;28351;51.480;5.706;2022-08-19T10:44:12;23.60;;;16.17;;
42714;SDS011;28351;51.480;5.706;2022-08-19T10:46:40;21.27;;;15.35;;
42714;SDS011;28351;51.480;5.706;2022-08-19T10:49:08;21.67;;;15.52;;
42714;SDS011;28351;51.480;5.706;2022-08-19T10:54:20;22.50;;;15.25;;
42714;SDS011;28351;51.480;5.706;2022-08-19T10:56:46;19.23;;;14.32;;
42714;SDS011;28351;51.480;5.706;2022-08-19T10:59:27;20.33;;;14.23;;
42714;SDS011;28351;51.480;5.706;2022-08-19T11:01:58;25.60;;;15.05;;
42714;SDS011;28351;51.480;5.706;2022-08-19T11:04:24;21.92;;;16.00;;
42714;SDS011;28351;51.480;5.706;2022-08-19T11:06:50;20.85;;;15.23;;
42714;SDS011;28351;51.480;5.706;2022-08-19T11:09:19;27.42;;;15.18;;
42714;SDS011;28351;51.480;5.706;2022-08-19T11:11:49;19.77;;;14.20;;
42714;SDS011;28351;51.480;5.706;2022-08-19T11:14:16;17.58;;;13.40;;
42714;SDS011;28351;51.480;5.706;2022-08-19T11:16:46;17.90;;;12.85;;
42714;SDS011;28351;51.480;5.706;2022-08-19T11:19:15;20.85;;;12.10;;
42714;SDS011;28351;51.480;5.706;2022-08-19T11:21:44;18.25;;;12.68;;
42714;SDS011;28351;51.480;5.706;2022-08-19T11:24:22;17.17;;;11.73;;
42714;SDS011;28351;51.480;5.706;2022-08-19T11:26:50;17.70;;;12.07;;
42714;SDS011;28351;51.480;5.706;2022-08-19T11:29:19;17.70;;;11.70;;
42714;SDS011;28351;51.480;5.706;2022-08-19T11:31:46;17.88;;;11.48;;
42714;SDS011;28351;51.480;5.706;2022-08-19T11:34:15;13.80;;;10.60;;
42714;SDS011;28351;51.480;5.706;2022-08-19T11:36:43;18.23;;;11.85;;
42714;SDS011;28351;51.480;5.706;2022-08-19T11:39:10;16.27;;;11.18;;
42714;SDS011;28351;51.480;5.706;2022-08-19T11:41:38;16.15;;;11.50;;
42714;SDS011;28351;51.480;5.706;2022-08-19T11:44:04;14.30;;;10.93;;
42714;SDS011;28351;51.480;5.706;2022-08-19T11:48:59;17.00;;;11.25;;
42714;SDS011;28351;51.480;5.706;2022-08-19T11:51:28;17.50;;;11.93;;
42714;SDS011;28351;51.480;5.706;2022-08-19T11:53:55;15.05;;;11.68;;
42714;SDS011;28351;51.480;5.706;2022-08-19T11:56:23;13.77;;;9.73;;
42714;SDS011;28351;51.480;5.706;2022-08-19T11:58:50;16.87;;;11.63;;
42714;SDS011;28351;51.480;5.706;2022-08-19T12:01:18;17.40;;;12.80;;
42714;SDS011;28351;51.480;5.706;2022-08-19T12:03:45;18.10;;;12.80;;
42714;SDS011;28351;51.480;5.706;2022-08-19T12:06:13;17.13;;;13.18;;
42714;SDS011;28351;51.480;5.706;2022-08-19T12:08:41;18.75;;;13.50;;
42714;SDS011;28351;51.480;5.706;2022-08-19T12:11:08;19.40;;;14.52;;
42714;SDS011;28351;51.480;5.706;2022-08-19T12:13:35;16.92;;;13.63;;
42714;SDS011;28351;51.480;5.706;2022-08-19T12:16:07;17.67;;;13.65;;
42714;SDS011;28351;51.480;5.706;2022-08-19T12:18:38;17.73;;;13.27;;
42714;SDS011;28351;51.480;5.706;2022-08-19T12:21:07;18.38;;;14.38;;
42714;SDS011;28351;51.480;5.706;2022-08-19T12:23:35;20.73;;;13.60;;
42714;SDS011;28351;51.480;5.706;2022-08-19T12:26:02;23.93;;;15.90;;
42714;SDS011;28351;51.480;5.706;2022-08-19T12:28:28;20.42;;;15.90;;
42714;SDS011;28351;51.480;5.706;2022-08-19T12:30:55;20.02;;;14.77;;
42714;SDS011;28351;51.480;5.706;2022-08-19T12:33:22;20.70;;;16.05;;
42714;SDS011;28351;51.480;5.706;2022-08-19T12:35:50;19.20;;;13.70;;
42714;SDS011;28351;51.480;5.706;2022-08-19T12:38:17;20.55;;;13.70;;
42714;SDS011;28351;51.480;5.706;2022-08-19T12:40:46;23.40;;;16.20;;
42714;SDS011;28351;51.480;5.706;2022-08-19T12:43:13;22.40;;;16.08;;
42714;SDS011;28351;51.480;5.706;2022-08-19T12:45:40;20.20;;;15.48;;
42714;SDS011;28351;51.480;5.706;2022-08-19T12:48:07;21.30;;;16.05;;
42714;SDS011;28351;51.480;5.706;2022-08-19T12:50:33;20.88;;;15.52;;
42714;SDS011;28351;51.480;5.706;2022-08-19T12:52:58;19.92;;;14.57;;
42714;SDS011;28351;51.480;5.706;2022-08-19T12:55:24;22.25;;;15.48;;
42714;SDS011;28351;51.480;5.706;2022-08-19T12:57:50;20.20;;;15.13;;
42714;SDS011;28351;51.480;5.706;2022-08-19T13:00:16;21.98;;;15.85;;
42714;SDS011;28351;51.480;5.706;2022-08-19T13:02:46;22.58;;;16.17;;
42714;SDS011;28351;51.480;5.706;2022-08-19T13:05:17;21.35;;;15.20;;
42714;SDS011;28351;51.480;5.706;2022-08-19T13:07:45;23.73;;;16.77;;
42714;SDS011;28351;51.480;5.706;2022-08-19T13:10:13;22.73;;;16.52;;
42714;SDS011;28351;51.480;5.706;2022-08-19T13:12:41;21.83;;;15.95;;
42714;SDS011;28351;51.480;5.706;2022-08-19T13:15:08;21.33;;;15.73;;
42714;SDS011;28351;51.480;5.706;2022-08-19T13:17:35;21.65;;;15.85;;
42714;SDS011;28351;51.480;5.706;2022-08-19T13:20:02;21.45;;;15.77;;
42714;SDS011;28351;51.480;5.706;2022-08-19T13:22:28;20.38;;;15.40;;
42714;SDS011;28351;51.480;5.706;2022-08-19T13:24:54;21.75;;;14.38;;
42714;SDS011;28351;51.480;5.706;2022-08-19T13:27:19;20.25;;;15.10;;
42714;SDS011;28351;51.480;5.706;2022-08-19T13:29:45;19.83;;;13.80;;
42714;SDS011;28351;51.480;5.706;2022-08-19T13:32:29;16.92;;;12.57;;
42714;SDS011;28351;51.480;5.706;2022-08-19T13:35:17;19.15;;;13.60;;
42714;SDS011;28351;51.480;5.706;2022-08-19T13:37:43;17.30;;;13.23;;
42714;SDS011;28351;51.480;5.706;2022-08-19T13:40:15;15.13;;;11.70;;
42714;SDS011;28351;51.480;5.706;2022-08-19T13:42:49;15.93;;;12.35;;
42714;SDS011;28351;51.480;5.706;2022-08-19T13:45:17;16.80;;;13.00;;
42714;SDS011;28351;51.480;5.706;2022-08-19T13:47:45;16.00;;;11.88;;
42714;SDS011;28351;51.480;5.706;2022-08-19T13:50:13;16.23;;;12.52;;
42714;SDS011;28351;51.480;5.706;2022-08-19T13:52:41;16.70;;;12.25;;
42714;SDS011;28351;51.480;5.706;2022-08-19T13:55:08;18.35;;;12.60;;
42714;SDS011;28351;51.480;5.706;2022-08-19T13:57:34;14.48;;;11.38;;
42714;SDS011;28351;51.480;5.706;2022-08-19T14:00:03;13.38;;;10.43;;
42714;SDS011;28351;51.480;5.706;2022-08-19T14:02:32;15.18;;;10.38;;
42714;SDS011;28351;51.480;5.706;2022-08-19T14:04:58;14.38;;;9.68;;
42714;SDS011;28351;51.480;5.706;2022-08-19T14:07:24;11.88;;;9.07;;
42714;SDS011;28351;51.480;5.706;2022-08-19T14:09:49;11.00;;;7.53;;
42714;SDS011;28351;51.480;5.706;2022-08-19T14:12:18;10.05;;;6.85;;
42714;SDS011;28351;51.480;5.706;2022-08-19T14:14:45;9.90;;;6.35;;
42714;SDS011;28351;51.480;5.706;2022-08-19T14:17:11;7.68;;;6.55;;
42714;SDS011;28351;51.480;5.706;2022-08-19T14:19:36;8.13;;;6.63;;
42714;SDS011;28351;51.480;5.706;2022-08-19T14:22:02;9.50;;;7.18;;
42714;SDS011;28351;51.480;5.706;2022-08-19T14:24:28;10.45;;;6.82;;
42714;SDS011;28351;51.480;5.706;2022-08-19T14:26:53;7.95;;;6.30;;
42714;SDS011;28351;51.480;5.706;2022-08-19T14:29:19;9.25;;;7.20;;
42714;SDS011;28351;51.480;5.706;2022-08-19T14:31:45;9.77;;;7.30;;
42714;SDS011;28351;51.480;5.706;2022-08-19T14:34:10;11.02;;;7.32;;
42714;SDS011;28351;51.480;5.706;2022-08-19T14:36:37;9.50;;;6.97;;
42714;SDS011;28351;51.480;5.706;2022-08-19T14:39:03;8.43;;;6.45;;
42714;SDS011;28351;51.480;5.706;2022-08-19T14:41:29;9.73;;;7.75;;
42714;SDS011;28351;51.480;5.706;2022-08-19T14:43:55;9.15;;;6.68;;
42714;SDS011;28351;51.480;5.706;2022-08-19T14:46:25;6.97;;;5.93;;
42714;SDS011;28351;51.480;5.706;2022-08-19T14:48:52;7.53;;;5.90;;
42714;SDS011;28351;51.480;5.706;2022-08-19T14:51:19;5.97;;;4.82;;